Time;durP1;ratioP1;P1;durP2;ratioP2;P2;SDS_P1;SDS_P2;PMS_P1;PMS_P2;Temp;Humidity;BMP_temperature;BMP_pressure;BME280_temperature;BME280_humidity;BME280_pressure;Samples;Min_cycle;Max_cycle;Signal;HPM_P1;HPM_P2
2021/03/18 00:01:14;;;;;;;6.80;4.07;;;3.00;53.50;;;;;;4943644;29;20187;-80
2021/03/18 00:03:52;;;;;;;9.95;3.75;;;3.00;53.60;;;;;;4926772;29;20199;-80
2021/03/18 00:06:24;;;;;;;5.13;3.10;;;3.00;53.60;;;;;;4927023;29;20211;-81
2021/03/18 00:08:57;;;;;;;3.28;2.97;;;2.90;54.00;;;;;;4943361;29;20199;-80
2021/03/18 00:11:31;;;;;;;4.15;3.60;;;2.90;53.50;;;;;;4943334;29;20219;-79
2021/03/18 00:14:16;;;;;;;6.70;4.00;;;2.90;54.00;;;;;;4943343;29;20194;-81
2021/03/18 00:16:44;;;;;;;5.95;3.22;;;3.00;53.60;;;;;;4942956;29;20211;-80
2021/03/18 00:19:16;;;;;;;4.45;3.60;;;3.00;53.60;;;;;;4943041;29;20195;-80
2021/03/18 00:21:44;;;;;;;3.70;2.70;;;3.00;53.60;;;;;;4942489;29;20318;-80
2021/03/18 00:24:11;;;;;;;5.38;2.95;;;2.90;53.50;;;;;;4942944;29;20270;-80
2021/03/18 00:26:41;;;;;;;6.22;3.10;;;2.90;53.70;;;;;;4942013;29;20696;-80
2021/03/18 00:29:10;;;;;;;4.65;3.30;;;2.80;54.10;;;;;;4942598;29;20200;-80
2021/03/18 00:31:41;;;;;;;5.60;3.55;;;2.90;54.50;;;;;;4942914;29;20193;-80
2021/03/18 00:34:15;;;;;;;5.78;3.50;;;2.80;54.70;;;;;;4911801;29;20184;-80
2021/03/18 00:36:44;;;;;;;6.00;3.42;;;2.80;54.70;;;;;;4926731;29;20275;-80
2021/03/18 00:42:00;;;;;;;4.28;3.47;;;2.70;54.80;;;;;;4942169;29;20207;-80
2021/03/18 00:44:34;;;;;;;4.15;3.40;;;2.70;54.70;;;;;;4926451;29;20215;-80
2021/03/18 00:56:52;;;;;;;4.88;4.35;;;2.70;54.80;;;;;;4940100;29;20230;-81
2021/03/18 00:59:21;;;;;;;6.55;3.90;;;2.70;54.70;;;;;;4892045;29;20214;-81
2021/03/18 01:02:30;;;;;;;8.18;4.15;;;2.70;54.80;;;;;;4940986;29;20199;-81
2021/03/18 01:05:32;;;;;;;9.73;5.05;;;2.80;54.60;;;;;;4939320;29;20296;-81
2021/03/18 01:08:05;;;;;;;8.65;4.43;;;2.80;54.40;;;;;;4935397;29;20211;-80
2021/03/18 01:11:01;;;;;;;8.35;4.57;;;2.80;54.70;;;;;;4932198;29;20215;-81
2021/03/18 01:13:57;;;;;;;4.60;3.95;;;2.80;54.70;;;;;;4937923;29;20215;-80
2021/03/18 01:16:33;;;;;;;9.50;4.35;;;2.70;54.80;;;;;;4941384;29;20222;-81
2021/03/18 01:22:43;;;;;;;4.25;3.83;;;2.70;54.90;;;;;;4929660;29;20207;-81
2021/03/18 01:37:27;;;;;;;12.82;4.80;;;2.60;55.70;;;;;;4913607;29;20228;-81
2021/03/18 01:40:45;;;;;;;6.72;4.50;;;2.70;55.60;;;;;;4863029;29;20304;-81
2021/03/18 01:43:31;;;;;;;8.35;4.30;;;2.60;54.80;;;;;;4851599;29;20197;-81
2021/03/18 01:46:12;;;;;;;8.18;4.68;;;2.60;55.20;;;;;;4868381;29;20220;-79
2021/03/18 01:49:02;;;;;;;6.63;4.20;;;2.60;54.70;;;;;;4883812;29;20256;-81
2021/03/18 01:51:48;;;;;;;6.80;4.40;;;2.60;55.10;;;;;;4883888;29;20230;-81
2021/03/18 01:54:18;;;;;;;8.15;4.50;;;2.50;55.50;;;;;;4884052;29;20216;-80
2021/03/18 01:57:07;;;;;;;5.70;4.47;;;2.40;55.80;;;;;;4883719;29;20249;-81
2021/03/18 01:59:38;;;;;;;6.85;5.93;;;2.30;56.60;;;;;;4883868;29;20280;-81
2021/03/18 02:02:07;;;;;;;6.45;4.38;;;2.30;57.20;;;;;;4883053;29;20214;-80
2021/03/18 02:04:36;;;;;;;6.50;4.60;;;2.10;57.50;;;;;;4882857;29;20226;-80
2021/03/18 02:07:05;;;;;;;5.90;4.90;;;2.00;58.30;;;;;;4883811;29;20243;-80
2021/03/18 02:09:53;;;;;;;5.07;4.20;;;2.00;58.50;;;;;;4883750;29;20216;-81
2021/03/18 02:12:29;;;;;;;9.40;4.85;;;2.00;59.00;;;;;;4883854;29;20193;-80
2021/03/18 02:14:57;;;;;;;6.38;4.30;;;1.90;59.30;;;;;;4883700;29;20230;-80
2021/03/18 02:17:34;;;;;;;8.40;5.28;;;1.70;59.80;;;;;;4914897;29;20215;-79
2021/03/18 02:20:55;;;;;;;8.60;4.65;;;1.70;60.30;;;;;;4921356;29;20203;-80
2021/03/18 02:24:08;;;;;;;7.03;4.07;;;1.60;61.40;;;;;;4846981;29;20233;-81
2021/03/18 02:27:18;;;;;;;8.57;4.32;;;1.60;61.50;;;;;;4829786;29;20234;-81
2021/03/18 02:30:29;;;;;;;8.55;5.10;;;1.60;61.50;;;;;;4843136;29;20466;-80
2021/03/18 02:33:50;;;;;;;5.65;4.80;;;1.60;62.20;;;;;;4833348;29;20210;-79
2021/03/18 02:36:36;;;;;;;11.02;4.70;;;1.60;62.90;;;;;;4803405;29;20274;-80
2021/03/18 02:39:08;;;;;;;5.75;4.43;;;1.60;62.90;;;;;;4849714;29;20216;-80
2021/03/18 02:41:41;;;;;;;10.48;5.65;;;1.60;63.40;;;;;;4865106;29;20194;-79
2021/03/18 02:44:13;;;;;;;6.47;5.15;;;1.60;63.80;;;;;;4864955;29;20246;-81
2021/03/18 02:46:44;;;;;;;14.52;4.95;;;1.60;63.90;;;;;;4865035;29;20259;-80
2021/03/18 02:49:19;;;;;;;9.43;5.90;;;1.60;63.30;;;;;;4871040;29;20243;-80
2021/03/18 02:51:49;;;;;;;6.95;5.30;;;1.70;63.10;;;;;;4885306;29;20207;-80
2021/03/18 02:54:24;;;;;;;9.50;5.68;;;1.70;63.40;;;;;;4887585;29;20192;-80
2021/03/18 02:56:57;;;;;;;6.10;5.30;;;1.70;63.90;;;;;;4909825;28;20214;-81
2021/03/18 02:59:35;;;;;;;10.70;5.72;;;1.70;64.00;;;;;;4963245;28;20215;-80
2021/03/18 03:02:08;;;;;;;5.13;4.30;;;1.80;64.20;;;;;;4963776;28;20265;-81
2021/03/18 03:04:40;;;;;;;7.88;5.25;;;1.90;63.80;;;;;;4963724;28;20206;-80
2021/03/18 03:07:19;;;;;;;11.23;6.15;;;1.80;63.10;;;;;;4963283;28;20210;-81
2021/03/18 03:09:57;;;;;;;7.53;4.70;;;1.80;62.90;;;;;;4963684;28;20179;-80
2021/03/18 03:12:28;;;;;;;10.10;6.13;;;1.70;62.90;;;;;;4963672;28;20258;-80
2021/03/18 03:14:58;;;;;;;8.00;5.68;;;1.70;63.00;;;;;;4946567;29;20203;-80
2021/03/18 03:17:29;;;;;;;11.48;4.95;;;1.60;63.10;;;;;;4963195;28;20179;-81
2021/03/18 03:19:59;;;;;;;8.48;4.97;;;1.60;63.20;;;;;;4955225;28;20214;-79
2021/03/18 03:22:29;;;;;;;7.10;4.97;;;1.60;63.40;;;;;;4959731;28;20542;-81
2021/03/18 03:25:03;;;;;;;5.38;4.60;;;1.50;62.40;;;;;;4962743;28;20229;-81
2021/03/18 03:27:45;;;;;;;6.25;4.53;;;1.50;61.70;;;;;;4963165;28;20257;-81
2021/03/18 03:30:16;;;;;;;9.27;5.15;;;1.50;62.10;;;;;;4962016;28;20227;-80
2021/03/18 03:32:47;;;;;;;6.85;5.10;;;1.40;62.50;;;;;;4962661;28;20226;-80
2021/03/18 03:35:17;;;;;;;9.82;5.28;;;1.50;62.70;;;;;;4962577;28;20210;-80
2021/03/18 03:37:53;;;;;;;8.13;4.57;;;1.50;61.40;;;;;;4962724;28;20230;-81
2021/03/18 03:40:26;;;;;;;8.32;4.65;;;1.50;61.30;;;;;;4960071;28;20171;-81
2021/03/18 03:43:01;;;;;;;7.90;5.00;;;1.60;61.40;;;;;;4946297;29;20210;-81
2021/03/18 03:45:34;;;;;;;7.28;5.50;;;1.60;60.70;;;;;;4961805;28;20319;-79
2021/03/18 03:48:05;;;;;;;8.82;5.40;;;1.60;59.90;;;;;;4959579;28;20259;-81
2021/03/18 03:50:37;;;;;;;10.00;5.28;;;1.60;60.40;;;;;;4962282;28;20191;-80
2021/03/18 03:53:19;;;;;;;7.25;4.50;;;1.70;60.30;;;;;;4962803;28;20210;-81
2021/03/18 03:56:04;;;;;;;7.38;4.90;;;1.70;60.50;;;;;;4959881;29;20229;-80
2021/03/18 03:58:44;;;;;;;7.03;4.82;;;1.70;60.20;;;;;;4959914;29;20199;-80
2021/03/18 04:01:25;;;;;;;5.72;4.50;;;1.70;59.10;;;;;;4943559;29;20217;-80
2021/03/18 04:04:07;;;;;;;6.40;4.78;;;1.70;59.10;;;;;;4960347;28;20178;-80
2021/03/18 04:07:00;;;;;;;8.55;4.07;;;1.80;59.20;;;;;;4962868;28;20214;-80
2021/03/18 04:09:38;;;;;;;11.32;4.90;;;1.70;58.40;;;;;;4962431;28;20195;-81
2021/03/18 04:12:14;;;;;;;7.78;4.93;;;1.70;58.60;;;;;;4962771;28;20214;-80
2021/03/18 04:14:46;;;;;;;6.25;4.63;;;1.70;58.70;;;;;;4962659;28;20216;-81
2021/03/18 04:17:17;;;;;;;8.35;4.85;;;1.80;58.50;;;;;;4962478;28;20238;-80
2021/03/18 04:20:07;;;;;;;7.63;5.18;;;1.80;58.40;;;;;;4962495;28;20258;-80
2021/03/18 04:22:43;;;;;;;8.73;5.18;;;1.80;58.60;;;;;;4961103;28;20254;-81
2021/03/18 04:25:19;;;;;;;9.35;5.30;;;1.90;58.90;;;;;;4959366;29;20214;-80
2021/03/18 04:27:54;;;;;;;6.75;4.32;;;1.80;58.30;;;;;;4958341;29;20229;-80
2021/03/18 04:30:37;;;;;;;9.32;5.40;;;1.80;58.60;;;;;;4937338;29;20238;-81
2021/03/18 04:33:08;;;;;;;6.53;5.20;;;1.70;58.50;;;;;;4949639;29;20301;-81
2021/03/18 04:35:42;;;;;;;9.40;5.85;;;1.70;58.10;;;;;;4948888;29;20219;-81
2021/03/18 04:38:14;;;;;;;7.82;5.75;;;1.70;57.60;;;;;;4948943;29;20217;-80
2021/03/18 04:40:53;;;;;;;12.77;6.65;;;1.60;58.00;;;;;;4950336;29;20198;-80
2021/03/18 04:43:28;;;;;;;9.82;5.75;;;1.60;58.30;;;;;;4949618;29;20230;-81
2021/03/18 04:45:59;;;;;;;10.10;5.88;;;1.60;58.90;;;;;;4949605;29;20242;-80
2021/03/18 04:48:29;;;;;;;8.68;5.90;;;1.60;58.00;;;;;;4950217;29;20194;-80
2021/03/18 04:51:02;;;;;;;12.40;6.10;;;1.60;57.80;;;;;;4950254;29;20234;-80
2021/03/18 05:00:01;;;;;;;6.47;5.55;;;1.70;58.20;;;;;;4898872;29;20197;-80
2021/03/18 05:02:42;;;;;;;7.25;4.63;;;1.70;57.60;;;;;;4897762;29;20281;-81
2021/03/18 05:05:15;;;;;;;6.32;4.80;;;1.70;57.60;;;;;;4897018;29;20228;-81
2021/03/18 05:10:40;;;;;;;8.15;5.65;;;1.80;57.10;;;;;;4853734;29;20205;-80
2021/03/18 05:13:16;;;;;;;12.32;6.28;;;1.80;56.70;;;;;;4858251;29;20690;-81
2021/03/18 05:15:56;;;;;;;5.82;5.18;;;1.80;56.60;;;;;;4857817;29;20233;-80
2021/03/18 05:18:27;;;;;;;10.02;5.32;;;1.80;56.30;;;;;;4853172;29;20221;-80
2021/03/18 05:21:32;;;;;;;8.63;5.80;;;1.90;56.20;;;;;;4859673;29;20299;-80
2021/03/18 05:26:47;;;;;;;9.73;6.22;;;1.80;55.50;;;;;;4861408;29;20295;-80
2021/03/18 05:29:18;;;;;;;5.60;5.07;;;1.90;55.60;;;;;;4862855;29;20233;-80
2021/03/18 05:31:57;;;;;;;7.80;5.75;;;1.90;55.20;;;;;;4860908;29;20221;-81
2021/03/18 05:34:28;;;;;;;7.43;6.10;;;2.00;55.20;;;;;;4860171;29;20192;-80
2021/03/18 05:37:00;;;;;;;8.63;6.00;;;2.00;55.50;;;;;;4890818;29;20236;-81
2021/03/18 05:39:41;;;;;;;7.72;6.25;;;2.10;54.90;;;;;;4898868;29;20204;-80
2021/03/18 05:47:45;;;;;;;9.63;6.70;;;2.00;55.50;;;;;;4956893;29;20191;-80
2021/03/18 05:50:31;;;;;;;11.20;6.68;;;2.00;55.30;;;;;;4959509;28;20214;-79
2021/03/18 05:53:02;;;;;;;10.93;6.85;;;2.00;55.70;;;;;;4959078;29;20210;-80
2021/03/18 05:55:32;;;;;;;7.63;6.82;;;2.10;55.50;;;;;;4957261;29;20225;-80
2021/03/18 05:58:03;;;;;;;8.55;6.80;;;2.10;55.70;;;;;;4941626;29;20237;-80
2021/03/18 06:00:41;;;;;;;11.90;6.90;;;2.20;55.90;;;;;;4957140;29;20293;-80
2021/03/18 06:03:15;;;;;;;10.27;6.85;;;2.40;55.70;;;;;;4954297;29;20198;-80
2021/03/18 06:05:45;;;;;;;12.60;7.07;;;2.50;55.30;;;;;;4952360;29;20277;-82
2021/03/18 06:08:24;;;;;;;10.57;6.60;;;2.60;55.30;;;;;;4956718;28;20186;-81
2021/03/18 06:10:57;;;;;;;10.95;6.20;;;2.70;55.20;;;;;;4954558;29;20210;-79
2021/03/18 06:13:29;;;;;;;10.48;7.05;;;2.60;55.60;;;;;;4955185;29;20213;-82
2021/03/18 06:16:06;;;;;;;8.88;6.75;;;2.50;55.50;;;;;;4956233;29;20237;-81
2021/03/18 06:18:57;;;;;;;9.05;6.38;;;2.50;56.70;;;;;;4959005;28;20182;-80
2021/03/18 06:21:47;;;;;;;8.00;6.80;;;2.50;57.00;;;;;;4957427;29;20251;-80
2021/03/18 06:24:25;;;;;;;12.10;7.25;;;2.50;57.10;;;;;;4956524;29;20227;-81
2021/03/18 06:27:01;;;;;;;8.70;5.88;;;2.50;57.80;;;;;;4950734;29;20241;-81
2021/03/18 06:29:38;;;;;;;13.15;6.97;;;2.30;58.50;;;;;;4950523;29;20206;-81
2021/03/18 06:32:31;;;;;;;11.55;6.20;;;2.30;59.10;;;;;;4955447;29;20214;-80
2021/03/18 22:00:04;;;;;;;8.32;7.25;;;4.70;45.60;;;;;;4920755;29;20271;-81
2021/03/18 22:03:24;;;;;;;8.38;6.45;;;4.60;45.50;;;;;;4847417;29;20195;-83
2021/03/18 22:06:30;;;;;;;7.10;6.05;;;4.60;47.10;;;;;;4846475;29;20258;-82
